createdAt,value
2018-07-04T00:03:20.650Z,101290.02
2018-07-04T00:08:34.347Z,101286.04
2018-07-04T00:13:47.957Z,101280.66
2018-07-04T00:19:01.690Z,101281.80
2018-07-04T00:24:15.502Z,101276.59
2018-07-04T00:29:29.343Z,101279.73
2018-07-04T00:34:43.095Z,101287.01
2018-07-04T00:39:56.795Z,101290.19
2018-07-04T00:45:10.558Z,101287.30
2018-07-04T00:50:24.255Z,101285.14
2018-07-04T00:55:37.839Z,101282.41
2018-07-04T01:00:51.637Z,101280.13
2018-07-04T01:06:05.317Z,101275.55
2018-07-04T01:11:19.326Z,101267.33
2018-07-04T01:16:33.017Z,101269.83
2018-07-04T01:21:46.639Z,101276.09
2018-07-04T01:27:00.362Z,101281.33
2018-07-04T01:32:14.148Z,101264.45
2018-07-04T01:37:27.967Z,101274.81
2018-07-04T01:42:41.710Z,101269.55
2018-07-04T01:47:55.332Z,101266.92
2018-07-04T01:53:09.137Z,101272.50
2018-07-04T01:58:22.847Z,101276.89
2018-07-04T02:03:36.576Z,101279.33
2018-07-04T02:08:50.287Z,101273.06
2018-07-04T02:14:03.994Z,101275.08
2018-07-04T02:19:18.130Z,101273.90
2018-07-04T02:24:31.824Z,101282.00
2018-07-04T02:29:45.607Z,101273.53
2018-07-04T02:35:00.292Z,101272.56
2018-07-04T02:40:13.898Z,101270.55
2018-07-04T02:45:27.730Z,101260.67
2018-07-04T02:50:41.313Z,101261.36
2018-07-04T02:55:55.048Z,101252.11
2018-07-04T03:01:08.834Z,101255.55
2018-07-04T03:06:22.622Z,101255.86
2018-07-04T03:11:36.336Z,101257.82
2018-07-04T03:16:50.042Z,101263.45
2018-07-04T03:22:03.726Z,101263.93
2018-07-04T03:27:17.459Z,101266.61
2018-07-04T03:32:31.172Z,101246.80
2018-07-04T03:37:44.891Z,101246.80
2018-07-04T03:42:58.582Z,101250.64
2018-07-04T03:48:12.380Z,101244.81
2018-07-04T03:53:26.052Z,101256.20
2018-07-04T03:58:39.642Z,101255.53
2018-07-04T04:03:53.318Z,101259.34
2018-07-04T04:09:06.882Z,101266.84
2018-07-04T04:14:20.624Z,101258.31
2018-07-04T04:19:34.824Z,101261.20
2018-07-04T04:24:48.877Z,101272.81
2018-07-04T04:30:02.410Z,101264.42
2018-07-04T04:35:16.040Z,101252.88
2018-07-04T04:40:29.734Z,101257.45
2018-07-04T04:45:43.534Z,101252.96
2018-07-04T04:50:57.153Z,101267.20
2018-07-04T04:56:10.933Z,101267.38
2018-07-04T05:01:24.647Z,101263.67
2018-07-04T05:06:38.373Z,101264.94
2018-07-04T05:11:52.165Z,101269.31
2018-07-04T05:17:05.784Z,101259.81
2018-07-04T05:22:19.568Z,101264.73
2018-07-04T05:27:33.315Z,101259.51
2018-07-04T05:32:46.865Z,101257.17
2018-07-04T05:38:00.530Z,101268.31
2018-07-04T05:43:14.317Z,101263.17
2018-07-04T05:48:27.948Z,101257.50
2018-07-04T05:53:41.607Z,101258.94
2018-07-04T05:58:55.228Z,101260.63
2018-07-04T06:04:08.782Z,101260.52
2018-07-04T06:09:22.446Z,101254.20
2018-07-04T06:14:36.088Z,101255.84
2018-07-04T06:19:49.786Z,101250.30
2018-07-04T06:25:03.598Z,101250.69
2018-07-04T06:30:17.379Z,101260.38
2018-07-04T06:36:34.506Z,101258.83
2018-07-04T06:41:35.704Z,101264.77
2018-07-04T06:46:36.929Z,101258.44
2018-07-04T06:51:38.165Z,101257.23
2018-07-04T06:56:39.399Z,101258.16
2018-07-04T07:01:40.631Z,101262.20
2018-07-04T07:06:54.326Z,101256.37
2018-07-04T07:12:07.914Z,101251.59
2018-07-04T07:17:21.670Z,101240.77
2018-07-04T07:22:35.428Z,101244.14
2018-07-04T07:27:49.474Z,101247.77
2018-07-04T07:33:03.122Z,101246.55
2018-07-04T07:38:16.745Z,101253.70
2018-07-04T07:43:30.399Z,101250.19
2018-07-04T07:48:44.016Z,101245.79
2018-07-04T07:53:57.688Z,101240.70
2018-07-04T07:59:11.279Z,101239.84
2018-07-04T08:04:24.944Z,101240.00
2018-07-04T08:09:38.649Z,101233.45
2018-07-04T08:14:52.403Z,101222.73
2018-07-04T08:20:05.984Z,101231.18
2018-07-04T08:25:19.600Z,101231.59
2018-07-04T08:30:33.327Z,101228.16
2018-07-04T08:35:47.000Z,101232.21
2018-07-04T08:41:00.845Z,101228.83
2018-07-04T08:46:14.484Z,101225.34
2018-07-04T08:51:28.176Z,101225.44
2018-07-04T08:56:41.814Z,101231.91
2018-07-04T09:01:55.302Z,101232.97
2018-07-04T09:07:09.112Z,101231.76
2018-07-04T09:12:22.767Z,101229.70
2018-07-04T09:17:36.540Z,101228.92
2018-07-04T09:22:50.368Z,101219.10
2018-07-04T09:28:04.092Z,101223.12
2018-07-04T09:33:17.707Z,101221.41
2018-07-04T09:38:31.390Z,101221.74
2018-07-04T09:43:45.205Z,101228.73
2018-07-04T09:48:58.986Z,101224.19
2018-07-04T09:54:12.728Z,101223.28
2018-07-04T09:59:26.403Z,101219.17
2018-07-04T10:04:39.998Z,101218.84
2018-07-04T10:09:53.606Z,101209.90
2018-07-04T10:15:07.211Z,101202.20
2018-07-04T10:20:20.796Z,101202.28
2018-07-04T10:25:34.655Z,101207.83
2018-07-04T10:30:48.240Z,101207.49
2018-07-04T10:36:01.909Z,101200.27
2018-07-04T10:41:15.455Z,101202.05
2018-07-04T10:46:29.047Z,101196.47
2018-07-04T10:51:42.871Z,101195.71
2018-07-04T10:56:56.550Z,101195.28
2018-07-04T11:02:10.206Z,101197.42
2018-07-04T11:07:24.202Z,101196.56
2018-07-04T11:12:37.875Z,101193.53
2018-07-04T11:17:51.695Z,101193.53
2018-07-04T11:23:05.323Z,101194.19
2018-07-04T11:28:19.050Z,101186.10
2018-07-04T11:33:32.642Z,101175.55
2018-07-04T11:38:46.155Z,101171.80
2018-07-04T11:43:59.766Z,101173.41
2018-07-04T11:49:01.393Z,101168.52
2018-07-04T11:54:02.644Z,101165.59
2018-07-04T11:59:03.885Z,101172.14
2018-07-04T12:04:17.608Z,101163.06
2018-07-04T12:09:18.805Z,101154.59
2018-07-04T12:14:20.053Z,101154.91
2018-07-04T12:19:21.336Z,101151.19
2018-07-04T12:24:22.561Z,101154.31
2018-07-04T12:29:23.789Z,101153.05
2018-07-04T12:34:25.022Z,101147.94
2018-07-04T12:39:26.240Z,101152.04
2018-07-04T12:44:27.492Z,101155.55
2018-07-04T12:49:28.875Z,101146.27
2018-07-04T12:54:35.923Z,101150.61
2018-07-04T12:59:49.525Z,101138.21
2018-07-04T13:05:03.264Z,101141.83
2018-07-04T13:10:17.147Z,101133.64
2018-07-04T13:15:30.792Z,101130.27
2018-07-04T13:20:44.625Z,101124.58
2018-07-04T13:25:58.617Z,101122.89
2018-07-04T13:31:12.204Z,101123.31
2018-07-04T13:36:25.716Z,101112.75
2018-07-04T13:41:39.379Z,101113.51
2018-07-04T13:46:54.056Z,101117.59
2018-07-04T13:52:08.831Z,101095.84
2018-07-04T13:57:22.655Z,101090.47
2018-07-04T14:02:36.417Z,101087.98
2018-07-04T14:07:50.114Z,101075.16
2018-07-04T14:13:03.884Z,101071.55
2018-07-04T14:18:17.738Z,101071.77
2018-07-04T14:23:31.448Z,101070.15
2018-07-04T14:28:45.136Z,101060.18
2018-07-04T14:33:58.841Z,101062.87
2018-07-04T14:39:12.467Z,101065.45
2018-07-04T14:44:26.221Z,101066.70
2018-07-04T14:49:39.814Z,101066.70
2018-07-04T14:54:53.689Z,101059.30
2018-07-04T15:00:07.536Z,101051.95
2018-07-04T15:05:21.093Z,101048.73
2018-07-04T15:10:34.838Z,101054.54
2018-07-04T15:15:48.693Z,101046.50
2018-07-04T15:21:02.503Z,101037.38
2018-07-04T15:26:16.148Z,101037.54
2018-07-04T15:31:29.923Z,101032.52
2018-07-04T15:36:43.623Z,101036.94
2018-07-04T15:41:57.460Z,101027.63
2018-07-04T15:47:11.132Z,101023.11
2018-07-04T15:52:24.764Z,101021.55
2018-07-04T15:57:38.324Z,101020.16
2018-07-04T16:02:51.956Z,101023.61
2018-07-04T16:08:05.680Z,101019.28
2018-07-04T16:13:19.427Z,101010.92
2018-07-04T16:18:33.267Z,101021.19
2018-07-04T16:23:47.025Z,101012.78
2018-07-04T16:29:00.941Z,101017.23
2018-07-04T16:34:14.699Z,101015.25
2018-07-04T16:39:28.303Z,101012.67
2018-07-04T16:44:42.202Z,101006.14
2018-07-04T16:49:55.941Z,101008.80
2018-07-04T16:55:09.713Z,101012.05
2018-07-04T17:00:23.387Z,101014.35
2018-07-04T17:05:37.020Z,101004.31
2018-07-04T17:10:50.720Z,101005.35
2018-07-04T17:16:04.449Z,101000.11
2018-07-04T17:21:17.979Z,100996.86
2018-07-04T17:26:31.743Z,100994.15
2018-07-04T17:31:45.425Z,101003.39
2018-07-04T17:36:58.998Z,101001.25
2018-07-04T17:42:12.619Z,100997.44
2018-07-04T17:47:26.431Z,100992.89
2018-07-04T17:52:40.380Z,100990.17
2018-07-04T17:57:54.134Z,100989.66
2018-07-04T18:03:07.981Z,100994.42
2018-07-04T18:08:21.743Z,100995.98
2018-07-04T18:13:36.662Z,100994.81
2018-07-04T18:18:50.407Z,100990.24
2018-07-04T18:24:05.331Z,100988.37
2018-07-04T18:29:19.005Z,100990.00
2018-07-04T18:34:32.673Z,100995.44
2018-07-04T18:39:46.316Z,100994.85
2018-07-04T18:45:00.166Z,100993.11
2018-07-04T18:50:13.765Z,100992.59
2018-07-04T18:55:27.631Z,100997.06
2018-07-04T19:00:41.324Z,101003.55
2018-07-04T19:05:54.870Z,101005.33
2018-07-04T19:11:08.719Z,101010.95
2018-07-04T19:16:22.437Z,101008.84
2018-07-04T19:21:36.072Z,101005.84
2018-07-04T19:26:49.945Z,101007.58
2018-07-04T19:32:03.781Z,101007.20
2018-07-04T19:37:17.498Z,101014.94
2018-07-04T19:42:31.217Z,101007.75
2018-07-04T19:47:44.856Z,100996.59
2018-07-04T19:52:58.590Z,100996.16
2018-07-04T19:58:12.169Z,100996.19
2018-07-04T20:03:25.849Z,100995.34
2018-07-04T20:08:39.623Z,101000.92
2018-07-04T20:13:53.256Z,100994.50
2018-07-04T20:19:06.995Z,100992.81
2018-07-04T20:24:20.633Z,100987.68
2018-07-04T20:29:34.362Z,100994.94
2018-07-04T20:34:48.180Z,100993.64
2018-07-04T20:40:01.980Z,100994.08
2018-07-04T20:45:15.687Z,100988.44
2018-07-04T20:50:29.447Z,100989.28
2018-07-04T20:55:43.088Z,100985.01
2018-07-04T21:00:56.726Z,100986.26
2018-07-04T21:06:10.458Z,100980.22
2018-07-04T21:11:24.292Z,100979.32
2018-07-04T21:16:38.072Z,100983.53
2018-07-04T21:21:51.882Z,100986.05
2018-07-04T21:27:05.680Z,100997.09
2018-07-04T21:32:19.380Z,100993.58
2018-07-04T21:37:33.111Z,100996.89
2018-07-04T21:42:46.786Z,100996.45
2018-07-04T21:48:00.466Z,100994.27
2018-07-04T21:53:14.175Z,101000.32
2018-07-04T21:58:27.955Z,101002.47
2018-07-04T22:03:41.731Z,101001.64
2018-07-04T22:08:55.310Z,101001.48
2018-07-04T22:14:08.963Z,101000.70
2018-07-04T22:19:22.534Z,101007.63
2018-07-04T22:24:36.255Z,100998.80
2018-07-04T22:29:49.837Z,100993.70
2018-07-04T22:35:03.476Z,100990.75
2018-07-04T22:40:17.095Z,100990.39
2018-07-04T22:45:30.644Z,100987.43
2018-07-04T22:50:44.293Z,100985.29
2018-07-04T22:55:58.048Z,100974.64
2018-07-04T23:01:11.603Z,100972.92
2018-07-04T23:06:25.442Z,100974.24
2018-07-04T23:11:39.110Z,100975.43
2018-07-04T23:16:52.820Z,100968.27
2018-07-04T23:22:06.748Z,100960.62
2018-07-04T23:27:20.429Z,100953.38
2018-07-04T23:32:34.140Z,100959.36
2018-07-04T23:37:47.964Z,100964.05
2018-07-04T23:43:01.622Z,100957.56
2018-07-04T23:48:15.349Z,100958.42
2018-07-04T23:53:29.039Z,100961.83
2018-07-04T23:58:42.616Z,100959.23
